Terminal Aerodrome Forecast
Issued by NWS

Home | Current Version | Previous Version | Text Only | Print | Product List | Glossary On
Versions: 1 2 3 4 5 6 7 8 9 10 11 12 13 14 15 16 17 18 19 20 21
859
FTUS41 KPHI 252324
TAFMIV
TAF
KMIV 252324Z 2600/2624 32010KT P6SM SCT040 BKN200
     FM260100 36015G25KT 6SM -TSRA SCT020CB OVC040
      TEMPO 2601/2603 32015G30KT 3SM TSRA BKN020CB OVC040
     FM260300 32004KT P6SM BKN100
     FM261500 28007KT P6SM SCT050=

USA.gov is the U.S. government's official web portal to all federal, state and local government web resources and services.